createdAt,value
2022-10-01T00:00:09.063Z,13.30
2022-10-01T00:02:59.572Z,14.10
2022-10-01T00:06:01.109Z,12.70
2022-10-01T00:08:31.268Z,14.20
2022-10-01T00:11:10.668Z,15.50
2022-10-01T00:14:02.076Z,15.40
2022-10-01T00:16:42.826Z,14.80
2022-10-01T00:19:15.779Z,14.40
2022-10-01T00:21:54.916Z,14.00
2022-10-01T00:24:29.771Z,13.90
2022-10-01T00:27:23.532Z,14.30
2022-10-01T00:30:04.802Z,14.80
2022-10-01T00:32:46.338Z,15.60
2022-10-01T00:36:05.765Z,16.10
2022-10-01T00:39:02.695Z,16.30
2022-10-01T00:41:44.542Z,18.40
2022-10-01T00:45:08.518Z,17.50
2022-10-01T00:47:52.043Z,15.90
2022-10-01T00:51:16.642Z,15.10
2022-10-01T00:54:24.031Z,16.00
2022-10-01T00:57:31.002Z,15.50
2022-10-01T01:00:15.196Z,15.60
2022-10-01T01:03:00.919Z,16.50
2022-10-01T01:05:47.832Z,16.70
2022-10-01T01:08:54.133Z,16.30
2022-10-01T01:12:01.510Z,15.80
2022-10-01T01:15:11.576Z,17.00
2022-10-01T01:18:26.725Z,17.40
2022-10-01T01:21:28.409Z,15.70
2022-10-01T01:24:29.010Z,16.60
2022-10-01T01:27:29.655Z,17.50
2022-10-01T01:30:10.597Z,17.00
2022-10-01T01:32:56.132Z,15.80
2022-10-01T01:35:56.357Z,16.20
2022-10-01T01:38:41.435Z,15.00
2022-10-01T01:41:15.692Z,15.50
2022-10-01T01:43:51.985Z,16.90
2022-10-01T01:49:04.587Z,19.20
2022-10-01T01:51:52.049Z,16.40
2022-10-01T01:54:20.878Z,17.30
2022-10-01T01:56:58.592Z,16.80
2022-10-01T01:59:32.805Z,15.80
2022-10-01T02:02:08.832Z,16.90
2022-10-01T02:04:46.107Z,15.80
2022-10-01T02:08:08.230Z,14.90
2022-10-01T02:11:25.190Z,17.00
2022-10-01T02:14:39.136Z,18.50
2022-10-01T02:17:21.479Z,17.10
2022-10-01T02:20:04.787Z,15.70
2022-10-01T02:23:10.292Z,16.60
2022-10-01T02:26:01.328Z,17.70
2022-10-01T02:28:43.386Z,15.60
2022-10-01T02:31:15.011Z,18.00
2022-10-01T02:33:51.936Z,19.00
2022-10-01T02:36:27.539Z,16.40
2022-10-01T02:39:32.252Z,17.00
2022-10-01T02:42:29.439Z,18.80
2022-10-01T02:45:23.921Z,19.50
2022-10-01T02:48:13.435Z,17.90
2022-10-01T02:51:20.372Z,17.90
2022-10-01T02:54:32.526Z,17.20
2022-10-01T02:57:24.618Z,17.80
2022-10-01T03:00:03.524Z,16.90
2022-10-01T03:02:59.899Z,17.40
2022-10-01T03:05:34.369Z,18.80
2022-10-01T03:08:28.507Z,17.00
2022-10-01T03:11:30.229Z,17.40
2022-10-01T03:14:25.938Z,19.80
2022-10-01T03:17:14.540Z,19.50
2022-10-01T03:19:51.723Z,17.60
2022-10-01T03:22:48.265Z,18.10
2022-10-01T03:25:33.344Z,17.80
2022-10-01T03:28:36.388Z,17.40
2022-10-01T03:31:49.024Z,17.20
2022-10-01T03:34:30.554Z,17.30
2022-10-01T03:37:31.399Z,18.10
2022-10-01T03:40:50.052Z,17.50
2022-10-01T03:43:38.383Z,17.50
2022-10-01T03:46:26.308Z,18.10
2022-10-01T03:49:05.490Z,18.40
2022-10-01T03:52:02.827Z,18.20
2022-10-01T03:54:32.653Z,18.00
2022-10-01T03:57:23.095Z,18.10
2022-10-01T04:00:14.891Z,16.70
2022-10-01T04:03:13.149Z,17.20
2022-10-01T04:05:46.678Z,17.80
2022-10-01T04:08:24.208Z,18.60
2022-10-01T04:11:30.081Z,18.40
2022-10-01T04:14:29.919Z,17.50
2022-10-01T04:17:11.212Z,17.40
2022-10-01T04:20:05.797Z,17.00
2022-10-01T04:22:58.189Z,18.20
2022-10-01T04:25:46.951Z,17.10
2022-10-01T04:28:29.117Z,15.60
2022-10-01T04:31:26.735Z,16.50
2022-10-01T04:34:03.627Z,15.60
2022-10-01T04:37:26.081Z,16.40
2022-10-01T04:40:08.377Z,15.90
2022-10-01T04:42:58.972Z,17.80
2022-10-01T04:45:47.735Z,14.80
2022-10-01T04:48:48.456Z,15.50
2022-10-01T04:51:31.730Z,15.70
2022-10-01T04:54:09.137Z,15.30
2022-10-01T04:57:01.339Z,16.00
2022-10-01T04:59:48.029Z,15.70
2022-10-01T05:02:29.710Z,17.50
2022-10-01T05:05:20.252Z,17.30
2022-10-01T05:07:57.937Z,16.00
2022-10-01T05:10:29.874Z,16.30
2022-10-01T05:14:07.058Z,16.80
2022-10-01T05:16:35.955Z,16.40
2022-10-01T05:19:17.623Z,16.20
2022-10-01T05:21:46.232Z,15.90
2022-10-01T05:24:17.687Z,16.70
2022-10-01T05:26:46.123Z,15.40
2022-10-01T05:29:21.821Z,15.50
2022-10-01T05:31:57.769Z,14.90
2022-10-01T05:34:36.752Z,16.40
2022-10-01T05:37:21.973Z,16.00
2022-10-01T05:40:02.229Z,16.70
2022-10-01T05:43:02.718Z,16.60
2022-10-01T05:45:42.758Z,16.00
2022-10-01T05:48:17.985Z,15.10
2022-10-01T05:51:10.071Z,14.10
2022-10-01T05:53:41.489Z,13.80
2022-10-01T05:56:28.010Z,13.80
2022-10-01T05:59:03.365Z,14.40
2022-10-01T06:01:38.390Z,13.10
2022-10-01T06:04:24.534Z,13.70
2022-10-01T06:07:01.071Z,15.60
2022-10-01T06:09:34.803Z,16.30
2022-10-01T06:12:26.402Z,16.40
2022-10-01T06:15:21.505Z,17.10
2022-10-01T06:17:53.729Z,13.90
2022-10-01T06:20:24.648Z,14.10
2022-10-01T06:23:22.426Z,13.40
2022-10-01T06:25:57.845Z,13.60
2022-10-01T06:28:38.469Z,14.50
2022-10-01T06:31:09.677Z,14.60
2022-10-01T06:34:17.332Z,14.30
2022-10-01T06:36:46.503Z,15.00
2022-10-01T06:39:15.000Z,12.60
2022-10-01T06:41:52.684Z,13.30
2022-10-01T06:44:25.049Z,12.80
2022-10-01T06:46:56.635Z,12.30
2022-10-01T06:49:30.904Z,13.80
2022-10-01T06:52:17.486Z,14.10
2022-10-01T06:54:57.578Z,13.70
2022-10-01T06:57:34.149Z,13.30
2022-10-01T07:00:19.559Z,13.20
2022-10-01T07:03:11.545Z,12.60
2022-10-01T07:05:46.659Z,12.10
2022-10-01T07:08:18.625Z,11.10
2022-10-01T07:10:47.658Z,13.70
2022-10-01T07:13:20.521Z,13.80
2022-10-01T07:15:49.804Z,13.80
2022-10-01T07:18:23.129Z,13.10
2022-10-01T07:20:58.207Z,13.70
2022-10-01T07:23:29.664Z,11.60
2022-10-01T07:26:19.367Z,11.60
2022-10-01T07:29:14.349Z,11.10
2022-10-01T07:32:02.694Z,12.20
2022-10-01T07:34:43.693Z,11.30
2022-10-01T07:37:24.658Z,12.20
2022-10-01T07:39:56.374Z,11.90
2022-10-01T07:42:34.818Z,12.60
2022-10-01T07:45:09.573Z,11.90
2022-10-01T07:47:42.041Z,11.50
2022-10-01T07:50:12.748Z,11.70
2022-10-01T07:52:43.726Z,11.70
2022-10-01T07:55:15.510Z,12.60
2022-10-01T07:57:44.876Z,13.80
2022-10-01T08:00:19.736Z,13.10
2022-10-01T08:02:56.288Z,12.50
2022-10-01T08:05:31.298Z,12.20
2022-10-01T08:08:05.034Z,12.70
2022-10-01T08:10:43.022Z,11.90
2022-10-01T08:13:23.186Z,12.50
2022-10-01T08:16:10.732Z,14.60
2022-10-01T08:18:55.824Z,13.70
2022-10-01T08:21:36.722Z,14.00
2022-10-01T08:24:07.080Z,13.70
2022-10-01T08:26:52.585Z,13.00
2022-10-01T08:29:23.247Z,12.60
2022-10-01T08:31:59.314Z,11.80
2022-10-01T08:34:32.995Z,12.00
2022-10-01T08:37:04.327Z,12.40
2022-10-01T08:39:37.525Z,12.00
2022-10-01T08:42:35.759Z,12.80
2022-10-01T08:45:50.942Z,12.80
2022-10-01T08:48:35.459Z,11.30
2022-10-01T08:51:42.475Z,10.90
2022-10-01T08:54:33.548Z,11.20
2022-10-01T08:57:12.747Z,10.40
2022-10-01T08:59:47.272Z,9.00
2022-10-01T09:02:26.330Z,10.20
2022-10-01T09:05:02.485Z,9.90
2022-10-01T09:07:51.687Z,9.50
2022-10-01T09:10:53.501Z,9.90
2022-10-01T09:13:41.160Z,8.90
2022-10-01T09:16:18.254Z,8.10
2022-10-01T09:19:20.241Z,7.80
2022-10-01T09:21:54.957Z,6.30
2022-10-01T09:24:44.776Z,7.60
2022-10-01T09:27:25.075Z,7.00
2022-10-01T09:29:59.158Z,6.80
2022-10-01T09:32:43.183Z,6.70
2022-10-01T09:35:26.449Z,6.70
2022-10-01T09:38:15.912Z,7.40
2022-10-01T09:40:57.876Z,6.80
2022-10-01T09:43:33.365Z,6.70
2022-10-01T09:46:13.684Z,7.30
2022-10-01T09:48:59.386Z,6.90
2022-10-01T09:51:34.825Z,6.40
2022-10-01T09:54:33.507Z,6.70
2022-10-01T09:57:26.775Z,6.60
2022-10-01T10:00:05.139Z,5.50
2022-10-01T10:02:39.329Z,5.70
2022-10-01T10:05:17.729Z,5.50
2022-10-01T10:08:12.309Z,5.50
2022-10-01T10:10:49.107Z,6.30
2022-10-01T10:13:44.679Z,5.70
2022-10-01T10:16:28.994Z,5.50
2022-10-01T10:19:22.829Z,5.40
2022-10-01T10:21:53.533Z,5.00
2022-10-01T10:24:34.659Z,5.60
2022-10-01T10:27:07.331Z,5.70
2022-10-01T10:29:37.112Z,6.00
2022-10-01T10:32:27.059Z,5.90
2022-10-01T10:35:10.329Z,5.60
2022-10-01T10:37:47.735Z,5.40
2022-10-01T10:40:27.101Z,5.80
2022-10-01T10:42:59.462Z,5.30
2022-10-01T10:45:38.265Z,5.30
2022-10-01T10:48:17.814Z,5.10
2022-10-01T10:50:47.539Z,4.90
2022-10-01T10:53:22.668Z,4.80
2022-10-01T10:56:04.350Z,4.80
2022-10-01T10:58:45.303Z,4.40
2022-10-01T11:01:21.447Z,4.60
2022-10-01T11:03:56.251Z,4.20
2022-10-01T11:06:24.971Z,5.10
2022-10-01T11:09:08.691Z,4.40
2022-10-01T11:11:45.925Z,4.20
2022-10-01T11:14:48.511Z,4.00
2022-10-01T11:17:41.572Z,4.60
2022-10-01T11:20:34.185Z,3.50
2022-10-01T11:23:05.180Z,2.00
2022-10-01T11:25:44.425Z,1.40
2022-10-01T11:28:22.939Z,1.60
2022-10-01T11:33:46.715Z,1.80
2022-10-01T11:36:54.700Z,1.70
2022-10-01T11:42:05.712Z,1.60
2022-10-01T11:44:43.746Z,1.50
2022-10-01T11:47:37.162Z,1.80
2022-10-01T11:50:15.294Z,1.80
2022-10-01T11:53:11.974Z,1.70
2022-10-01T11:56:05.864Z,1.80
2022-10-01T11:58:54.764Z,2.00
2022-10-01T12:03:54.233Z,1.90
2022-10-01T12:06:41.372Z,1.70
2022-10-01T12:09:18.079Z,1.60
2022-10-01T12:11:56.545Z,1.70
2022-10-01T12:14:32.881Z,1.70
2022-10-01T12:17:26.097Z,1.80
2022-10-01T12:19:57.352Z,1.80
2022-10-01T12:22:31.580Z,1.60
2022-10-01T12:25:00.582Z,1.80
2022-10-01T12:27:48.497Z,1.70
2022-10-01T12:30:21.794Z,1.60
2022-10-01T12:33:23.327Z,2.00
2022-10-01T12:36:01.452Z,1.50
2022-10-01T12:38:59.901Z,1.50
2022-10-01T12:41:31.115Z,1.90
2022-10-01T12:44:15.325Z,1.80
2022-10-01T12:47:14.323Z,1.80
2022-10-01T12:49:56.532Z,2.00
2022-10-01T12:52:52.536Z,1.40
2022-10-01T12:55:59.203Z,1.70
2022-10-01T12:58:46.246Z,1.50
2022-10-01T13:01:41.608Z,1.60
2022-10-01T13:04:35.980Z,1.60
2022-10-01T13:07:23.675Z,1.70
2022-10-01T13:10:18.867Z,1.70
2022-10-01T13:13:12.566Z,1.70
2022-10-01T13:15:47.766Z,1.30
2022-10-01T13:20:40.049Z,1.70
2022-10-01T13:23:59.208Z,1.50
2022-10-01T13:27:00.280Z,1.70
2022-10-01T13:29:48.701Z,1.50
2022-10-01T13:32:26.121Z,1.40
2022-10-01T13:34:55.079Z,2.00
2022-10-01T13:37:30.415Z,1.80
2022-10-01T13:39:59.903Z,1.70
2022-10-01T13:45:41.351Z,1.80
2022-10-01T13:48:19.082Z,1.90
2022-10-01T13:51:03.683Z,1.90
2022-10-01T13:53:38.165Z,1.40
2022-10-01T13:56:12.979Z,1.90
2022-10-01T13:58:43.667Z,1.80
2022-10-01T14:01:23.617Z,1.90
2022-10-01T14:04:21.782Z,1.80
2022-10-01T14:06:57.615Z,1.50
2022-10-01T14:09:31.690Z,1.90
2022-10-01T14:12:46.578Z,1.70
2022-10-01T14:15:42.819Z,1.90
2022-10-01T14:18:21.670Z,1.80
2022-10-01T14:21:38.597Z,2.20
2022-10-01T14:24:28.262Z,1.90
2022-10-01T14:27:21.491Z,2.30
2022-10-01T14:30:30.839Z,2.00
2022-10-01T14:33:28.456Z,2.10
2022-10-01T14:36:24.929Z,2.20
2022-10-01T14:39:03.852Z,2.00
2022-10-01T14:41:35.363Z,2.60
2022-10-01T14:44:34.102Z,2.40
2022-10-01T14:47:23.343Z,2.40
2022-10-01T14:49:54.771Z,2.30
2022-10-01T14:52:34.434Z,2.50
2022-10-01T14:55:16.954Z,2.80
2022-10-01T14:57:52.493Z,2.60
2022-10-01T15:00:28.056Z,2.50
2022-10-01T15:03:10.876Z,2.60
2022-10-01T15:05:47.402Z,2.30
2022-10-01T15:08:42.202Z,1.60
2022-10-01T15:11:15.400Z,1.40
2022-10-01T15:13:49.341Z,1.40
2022-10-01T15:16:21.968Z,1.50
2022-10-01T15:19:34.083Z,2.40
2022-10-01T15:22:19.860Z,2.40
2022-10-01T15:24:53.372Z,2.10
2022-10-01T15:27:44.189Z,2.50
2022-10-01T15:30:28.083Z,2.30
2022-10-01T15:32:58.731Z,2.60
2022-10-01T15:35:30.554Z,2.50
2022-10-01T15:38:00.887Z,2.00
2022-10-01T15:40:35.356Z,2.10
2022-10-01T15:43:10.480Z,2.00
2022-10-01T15:45:40.720Z,1.80
2022-10-01T15:48:30.908Z,1.90
2022-10-01T15:51:07.023Z,1.80
2022-10-01T15:53:40.868Z,2.00
2022-10-01T15:56:14.451Z,1.90
2022-10-01T15:58:58.599Z,1.60
2022-10-01T16:01:45.620Z,1.90
2022-10-01T16:04:15.127Z,1.90
2022-10-01T16:06:49.973Z,1.80
2022-10-01T16:09:24.284Z,1.40
2022-10-01T16:11:57.566Z,1.50
2022-10-01T16:14:31.929Z,1.10
2022-10-01T16:17:24.163Z,1.30
2022-10-01T16:19:57.194Z,1.30
2022-10-01T16:22:39.924Z,1.20
2022-10-01T16:25:23.502Z,1.30
2022-10-01T16:28:21.299Z,1.50
2022-10-01T16:30:58.453Z,1.30
2022-10-01T16:33:27.469Z,1.50
2022-10-01T16:36:19.418Z,1.50
2022-10-01T16:38:58.671Z,1.50
2022-10-01T16:41:30.610Z,1.90
2022-10-01T16:44:03.226Z,1.70
2022-10-01T16:46:42.888Z,2.00
2022-10-01T16:49:15.783Z,1.60
2022-10-01T16:51:46.784Z,1.80
2022-10-01T16:54:38.106Z,1.90
2022-10-01T16:57:11.551Z,2.20
2022-10-01T17:00:22.639Z,2.60
2022-10-01T17:03:20.392Z,1.90
2022-10-01T17:05:52.769Z,2.00
2022-10-01T17:08:36.427Z,1.90
2022-10-01T17:11:28.836Z,1.80
2022-10-01T17:14:08.901Z,1.70
2022-10-01T17:16:43.246Z,2.10
2022-10-01T17:19:13.573Z,1.90
2022-10-01T17:21:42.036Z,1.60
2022-10-01T17:24:14.931Z,1.60
2022-10-01T17:26:47.170Z,1.90
2022-10-01T17:29:19.326Z,1.70
2022-10-01T17:31:56.453Z,2.10
2022-10-01T17:34:39.669Z,2.20
2022-10-01T17:37:09.364Z,2.30
2022-10-01T17:39:38.526Z,2.00
2022-10-01T17:42:13.204Z,2.30
2022-10-01T17:44:56.168Z,2.10
2022-10-01T17:47:27.823Z,2.50
2022-10-01T17:50:02.340Z,2.40
2022-10-01T17:52:32.317Z,2.00
2022-10-01T17:55:00.884Z,2.40
2022-10-01T17:57:32.787Z,2.30
2022-10-01T18:00:09.751Z,2.80
2022-10-01T18:02:50.546Z,2.70
2022-10-01T18:05:30.740Z,2.70
2022-10-01T18:08:03.372Z,2.80
2022-10-01T18:10:42.151Z,2.90
2022-10-01T18:13:30.491Z,3.00
2022-10-01T18:16:14.121Z,3.90
2022-10-01T18:21:55.497Z,3.90
2022-10-01T18:24:27.546Z,3.50
2022-10-01T18:26:59.255Z,3.00
2022-10-01T18:29:40.376Z,3.00
2022-10-01T18:32:19.561Z,3.10
2022-10-01T18:35:00.659Z,3.40
2022-10-01T18:37:49.949Z,4.00
2022-10-01T18:40:29.614Z,3.40
2022-10-01T18:43:13.624Z,3.00
2022-10-01T18:46:08.731Z,2.70
2022-10-01T18:48:55.128Z,3.10
2022-10-01T18:52:07.569Z,3.00
2022-10-01T18:55:17.716Z,3.20
2022-10-01T18:58:27.856Z,2.50
2022-10-01T19:01:40.054Z,2.50
2022-10-01T19:04:26.952Z,1.80
2022-10-01T19:07:16.719Z,2.20
2022-10-01T19:09:54.240Z,2.20
2022-10-01T19:12:42.462Z,2.10
2022-10-01T19:15:29.557Z,2.10
2022-10-01T19:18:07.144Z,2.40
2022-10-01T19:21:06.912Z,2.50
2022-10-01T19:23:48.657Z,2.40
2022-10-01T19:26:26.763Z,2.70
2022-10-01T19:29:39.674Z,2.20
2022-10-01T19:32:21.523Z,2.40
2022-10-01T19:34:57.543Z,2.50
2022-10-01T19:37:38.305Z,2.30
2022-10-01T19:40:22.796Z,2.80
2022-10-01T19:43:08.464Z,2.70
2022-10-01T19:45:47.839Z,2.70
2022-10-01T19:48:37.643Z,2.80
2022-10-01T19:51:15.381Z,3.00
2022-10-01T19:54:04.749Z,3.30
2022-10-01T19:56:40.021Z,3.30
2022-10-01T19:59:16.898Z,3.40
2022-10-01T20:02:04.213Z,3.30
2022-10-01T20:04:41.177Z,3.50
2022-10-01T20:07:23.568Z,3.30
2022-10-01T20:10:15.422Z,3.50
2022-10-01T20:13:10.219Z,3.30
2022-10-01T20:16:10.455Z,3.30
2022-10-01T20:21:53.700Z,3.50
2022-10-01T20:24:49.524Z,3.00
2022-10-01T20:27:39.793Z,2.60
2022-10-01T20:30:30.842Z,2.70
2022-10-01T20:33:24.388Z,3.10
2022-10-01T20:36:42.327Z,2.80
2022-10-01T20:39:29.289Z,2.80
2022-10-01T20:42:11.339Z,2.70
2022-10-01T20:44:45.416Z,2.90
2022-10-01T20:47:40.466Z,2.90
2022-10-01T20:50:26.301Z,2.40
2022-10-01T20:53:04.530Z,2.70
2022-10-01T20:56:17.534Z,2.50
2022-10-01T20:59:19.900Z,2.50
2022-10-01T21:02:46.295Z,2.80
2022-10-01T21:05:32.664Z,2.50
2022-10-01T21:08:41.739Z,2.60
2022-10-01T21:11:22.227Z,3.00
2022-10-01T21:14:07.428Z,2.80
2022-10-01T21:16:50.867Z,3.20
2022-10-01T21:19:41.198Z,2.80
2022-10-01T21:22:48.511Z,2.90
2022-10-01T21:25:24.893Z,3.20
2022-10-01T21:28:06.864Z,2.70
2022-10-01T21:31:01.575Z,2.10
2022-10-01T21:34:03.006Z,2.70
2022-10-01T21:36:38.217Z,3.10
2022-10-01T21:39:17.315Z,2.20
2022-10-01T21:42:25.569Z,2.10
2022-10-01T21:45:23.360Z,2.30
2022-10-01T21:48:42.507Z,2.30
2022-10-01T21:51:17.772Z,2.30
2022-10-01T21:54:15.105Z,2.00
2022-10-01T21:57:28.535Z,2.40
2022-10-01T22:00:21.839Z,2.10
2022-10-01T22:03:02.369Z,1.90
2022-10-01T22:05:38.115Z,2.00
2022-10-01T22:08:37.199Z,2.40
2022-10-01T22:11:35.119Z,2.10
2022-10-01T22:14:12.953Z,1.70
2022-10-01T22:16:54.598Z,2.50
2022-10-01T22:19:34.623Z,2.10
2022-10-01T22:22:13.568Z,2.20
2022-10-01T22:24:49.175Z,2.30
2022-10-01T22:28:03.813Z,2.30
2022-10-01T22:30:36.827Z,2.20
2022-10-01T22:33:12.776Z,2.30
2022-10-01T22:35:56.038Z,2.20
2022-10-01T22:38:39.139Z,2.10
2022-10-01T22:41:33.410Z,2.40
2022-10-01T22:44:10.478Z,2.00
2022-10-01T22:46:48.279Z,1.90
2022-10-01T22:49:20.789Z,1.90
2022-10-01T22:51:49.824Z,1.90
2022-10-01T22:54:59.080Z,2.00
2022-10-01T22:58:09.566Z,1.70
2022-10-01T23:01:38.459Z,1.50
2022-10-01T23:04:47.632Z,1.50
2022-10-01T23:07:37.970Z,1.50
2022-10-01T23:10:15.575Z,1.50
2022-10-01T23:12:58.178Z,1.40
2022-10-01T23:16:04.362Z,1.30
2022-10-01T23:19:03.806Z,1.30
2022-10-01T23:22:11.125Z,1.40
2022-10-01T23:25:20.842Z,1.20
2022-10-01T23:28:17.549Z,1.30
2022-10-01T23:31:01.297Z,1.50
2022-10-01T23:34:07.093Z,1.30
2022-10-01T23:40:07.582Z,1.10
2022-10-01T23:45:25.590Z,1.10
2022-10-01T23:48:44.993Z,1.10
2022-10-01T23:51:28.177Z,1.00
2022-10-01T23:54:54.326Z,1.20
2022-10-01T23:57:47.297Z,1.10
